sensor_id;sensor_type;location;lat;lon;timestamp;temperature;humidity
74520;DHT22;63002;48.134;-1.948;2023-06-10T05:00:33;24.80;57.30
74520;DHT22;63002;48.134;-1.948;2023-06-10T05:02:59;24.80;57.30
74520;DHT22;63002;48.134;-1.948;2023-06-10T05:05:25;24.80;57.30
74520;DHT22;63002;48.134;-1.948;2023-06-10T05:07:51;24.80;57.30
74520;DHT22;63002;48.134;-1.948;2023-06-10T05:10:16;24.80;57.40
74520;DHT22;63002;48.134;-1.948;2023-06-10T05:12:42;24.80;57.30
74520;DHT22;63002;48.134;-1.948;2023-06-10T05:15:08;24.80;57.30
74520;DHT22;63002;48.134;-1.948;2023-06-10T05:17:34;24.80;57.40
74520;DHT22;63002;48.134;-1.948;2023-06-10T05:20:03;24.80;57.40
74520;DHT22;63002;48.134;-1.948;2023-06-10T05:22:29;24.80;57.40
74520;DHT22;63002;48.134;-1.948;2023-06-10T05:24:55;24.80;57.30
74520;DHT22;63002;48.134;-1.948;2023-06-10T05:27:22;24.80;57.30
74520;DHT22;63002;48.134;-1.948;2023-06-10T05:29:48;24.80;57.30
74520;DHT22;63002;48.134;-1.948;2023-06-10T05:32:13;24.80;57.40
74520;DHT22;63002;48.134;-1.948;2023-06-10T05:34:39;24.80;57.40
74520;DHT22;63002;48.134;-1.948;2023-06-10T05:37:05;24.80;57.40
74520;DHT22;63002;48.134;-1.948;2023-06-10T05:39:31;24.80;57.40
74520;DHT22;63002;48.134;-1.948;2023-06-10T05:41:57;24.80;57.50
74520;DHT22;63002;48.134;-1.948;2023-06-10T05:44:24;24.80;57.50
74520;DHT22;63002;48.134;-1.948;2023-06-10T05:46:51;24.80;57.50
74520;DHT22;63002;48.134;-1.948;2023-06-10T05:49:16;24.80;57.50
74520;DHT22;63002;48.134;-1.948;2023-06-10T05:51:42;24.80;57.50
74520;DHT22;63002;48.134;-1.948;2023-06-10T05:54:08;24.80;57.50
74520;DHT22;63002;48.134;-1.948;2023-06-10T05:56:33;24.80;57.50
74520;DHT22;63002;48.134;-1.948;2023-06-10T05:58:59;24.80;57.40
74520;DHT22;63002;48.134;-1.948;2023-06-10T06:01:25;24.80;57.50
74520;DHT22;63002;48.134;-1.948;2023-06-10T06:03:50;24.80;57.50
74520;DHT22;63002;48.134;-1.948;2023-06-10T06:06:16;24.80;57.40
74520;DHT22;63002;48.134;-1.948;2023-06-10T06:08:42;24.90;57.30
74520;DHT22;63002;48.134;-1.948;2023-06-10T06:11:08;24.80;57.50
74520;DHT22;63002;48.134;-1.948;2023-06-10T06:13:33;24.80;57.50
74520;DHT22;63002;48.134;-1.948;2023-06-10T06:15:59;24.80;57.60
74520;DHT22;63002;48.134;-1.948;2023-06-10T06:18:25;24.80;57.60
74520;DHT22;63002;48.134;-1.948;2023-06-10T06:20:51;24.80;57.70
74520;DHT22;63002;48.134;-1.948;2023-06-10T06:23:16;24.80;57.50
74520;DHT22;63002;48.134;-1.948;2023-06-10T06:25:42;24.80;57.50
74520;DHT22;63002;48.134;-1.948;2023-06-10T06:28:09;24.90;57.80
74520;DHT22;63002;48.134;-1.948;2023-06-10T06:30:35;24.80;58.10
74520;DHT22;63002;48.134;-1.948;2023-06-10T06:33:01;24.90;57.80
74520;DHT22;63002;48.134;-1.948;2023-06-10T06:35:27;24.90;57.80
74520;DHT22;63002;48.134;-1.948;2023-06-10T06:37:55;25.00;57.70
74520;DHT22;63002;48.134;-1.948;2023-06-10T06:40:22;24.90;57.70
74520;DHT22;63002;48.134;-1.948;2023-06-10T06:42:48;24.90;57.60
74520;DHT22;63002;48.134;-1.948;2023-06-10T06:45:16;24.90;57.60
74520;DHT22;63002;48.134;-1.948;2023-06-10T06:47:42;24.90;57.50
74520;DHT22;63002;48.134;-1.948;2023-06-10T06:50:10;24.90;57.60
74520;DHT22;63002;48.134;-1.948;2023-06-10T06:52:37;24.90;57.50
74520;DHT22;63002;48.134;-1.948;2023-06-10T06:55:03;24.90;57.60
74520;DHT22;63002;48.134;-1.948;2023-06-10T06:57:30;24.90;58.00
74520;DHT22;63002;48.134;-1.948;2023-06-10T06:59:55;24.80;58.60
74520;DHT22;63002;48.134;-1.948;2023-06-10T07:02:21;24.70;59.70
74520;DHT22;63002;48.134;-1.948;2023-06-10T07:04:50;24.60;60.40
74520;DHT22;63002;48.134;-1.948;2023-06-10T07:07:16;24.50;60.80
74520;DHT22;63002;48.134;-1.948;2023-06-10T07:09:42;24.40;61.00
74520;DHT22;63002;48.134;-1.948;2023-06-10T07:12:09;24.40;61.20
74520;DHT22;63002;48.134;-1.948;2023-06-10T07:14:35;24.30;61.40
74520;DHT22;63002;48.134;-1.948;2023-06-10T07:17:00;24.20;61.60
74520;DHT22;63002;48.134;-1.948;2023-06-10T07:19:26;24.20;61.80
74520;DHT22;63002;48.134;-1.948;2023-06-10T07:21:52;24.20;61.70
74520;DHT22;63002;48.134;-1.948;2023-06-10T07:24:18;24.30;61.10
74520;DHT22;63002;48.134;-1.948;2023-06-10T07:26:45;24.40;60.50
74520;DHT22;63002;48.134;-1.948;2023-06-10T07:29:11;24.50;60.90
74520;DHT22;63002;48.134;-1.948;2023-06-10T07:31:38;24.50;60.70
74520;DHT22;63002;48.134;-1.948;2023-06-10T07:34:05;24.50;60.30
74520;DHT22;63002;48.134;-1.948;2023-06-10T07:36:32;24.60;60.00
74520;DHT22;63002;48.134;-1.948;2023-06-10T07:38:58;24.70;59.80
74520;DHT22;63002;48.134;-1.948;2023-06-10T07:41:29;24.70;59.70
74520;DHT22;63002;48.134;-1.948;2023-06-10T07:43:55;24.70;59.50
74520;DHT22;63002;48.134;-1.948;2023-06-10T07:46:22;24.80;59.20
74520;DHT22;63002;48.134;-1.948;2023-06-10T07:48:49;24.80;59.00
74520;DHT22;63002;48.134;-1.948;2023-06-10T07:51:16;24.80;58.90
74520;DHT22;63002;48.134;-1.948;2023-06-10T07:53:42;24.80;59.10
74520;DHT22;63002;48.134;-1.948;2023-06-10T07:56:08;24.90;58.90
74520;DHT22;63002;48.134;-1.948;2023-06-10T07:58:34;24.90;58.80
74520;DHT22;63002;48.134;-1.948;2023-06-10T08:01:00;24.90;58.70
74520;DHT22;63002;48.134;-1.948;2023-06-10T08:03:25;24.80;59.50
74520;DHT22;63002;48.134;-1.948;2023-06-10T08:05:51;24.80;59.40
74520;DHT22;63002;48.134;-1.948;2023-06-10T08:08:17;24.90;59.00
74520;DHT22;63002;48.134;-1.948;2023-06-10T08:10:43;25.00;58.90
74520;DHT22;63002;48.134;-1.948;2023-06-10T08:13:09;25.00;58.80
74520;DHT22;63002;48.134;-1.948;2023-06-10T08:15:35;25.00;58.60
74520;DHT22;63002;48.134;-1.948;2023-06-10T08:18:02;25.00;58.60
74520;DHT22;63002;48.134;-1.948;2023-06-10T08:20:28;25.00;58.70
74520;DHT22;63002;48.134;-1.948;2023-06-10T08:22:53;25.00;58.60
74520;DHT22;63002;48.134;-1.948;2023-06-10T08:25:19;25.00;58.50
74520;DHT22;63002;48.134;-1.948;2023-06-10T08:27:47;25.00;58.40
74520;DHT22;63002;48.134;-1.948;2023-06-10T08:30:13;25.00;58.40
74520;DHT22;63002;48.134;-1.948;2023-06-10T08:32:39;25.00;58.90
74520;DHT22;63002;48.134;-1.948;2023-06-10T08:35:05;24.70;60.60
74520;DHT22;63002;48.134;-1.948;2023-06-10T08:37:31;24.60;61.40
74520;DHT22;63002;48.134;-1.948;2023-06-10T08:39:57;24.50;61.60
74520;DHT22;63002;48.134;-1.948;2023-06-10T08:42:33;24.40;62.00
74520;DHT22;63002;48.134;-1.948;2023-06-10T08:45:02;24.30;62.40
74520;DHT22;63002;48.134;-1.948;2023-06-10T08:47:30;24.20;62.60
74520;DHT22;63002;48.134;-1.948;2023-06-10T08:50:03;24.20;62.80
74520;DHT22;63002;48.134;-1.948;2023-06-10T08:52:35;24.30;62.70
74520;DHT22;63002;48.134;-1.948;2023-06-10T08:55:12;24.30;62.70
74520;DHT22;63002;48.134;-1.948;2023-06-10T08:57:41;24.20;63.10
74520;DHT22;63002;48.134;-1.948;2023-06-10T09:00:08;24.30;63.00
74520;DHT22;63002;48.134;-1.948;2023-06-10T09:02:34;24.20;63.40
74520;DHT22;63002;48.134;-1.948;2023-06-10T09:05:02;24.20;63.60
74520;DHT22;63002;48.134;-1.948;2023-06-10T09:07:29;24.30;63.20
74520;DHT22;63002;48.134;-1.948;2023-06-10T09:09:57;24.30;63.60
74520;DHT22;63002;48.134;-1.948;2023-06-10T09:12:24;24.20;63.60
74520;DHT22;63002;48.134;-1.948;2023-06-10T09:14:50;24.20;63.60
74520;DHT22;63002;48.134;-1.948;2023-06-10T09:17:17;24.20;63.80
74520;DHT22;63002;48.134;-1.948;2023-06-10T09:19:44;24.20;63.40
74520;DHT22;63002;48.134;-1.948;2023-06-10T09:22:10;24.40;63.50
74520;DHT22;63002;48.134;-1.948;2023-06-10T09:24:36;24.50;63.40
74520;DHT22;63002;48.134;-1.948;2023-06-10T09:27:05;24.60;62.70
74520;DHT22;63002;48.134;-1.948;2023-06-10T09:29:57;24.70;62.20
74520;DHT22;63002;48.134;-1.948;2023-06-10T09:32:24;24.70;62.20
74520;DHT22;63002;48.134;-1.948;2023-06-10T09:34:50;24.80;61.80
74520;DHT22;63002;48.134;-1.948;2023-06-10T09:37:23;24.90;61.40
74520;DHT22;63002;48.134;-1.948;2023-06-10T09:40:05;24.80;62.30
74520;DHT22;63002;48.134;-1.948;2023-06-10T09:42:36;24.70;62.90
74520;DHT22;63002;48.134;-1.948;2023-06-10T09:45:03;24.70;62.50
74520;DHT22;63002;48.134;-1.948;2023-06-10T09:47:30;24.70;62.50
74520;DHT22;63002;48.134;-1.948;2023-06-10T09:49:55;24.70;62.50
74520;DHT22;63002;48.134;-1.948;2023-06-10T09:52:24;24.70;62.20
74520;DHT22;63002;48.134;-1.948;2023-06-10T09:54:54;24.80;61.60
74520;DHT22;63002;48.134;-1.948;2023-06-10T09:57:24;24.90;61.30
74520;DHT22;63002;48.134;-1.948;2023-06-10T09:59:53;25.00;61.00
74520;DHT22;63002;48.134;-1.948;2023-06-10T10:02:19;25.00;60.80
74520;DHT22;63002;48.134;-1.948;2023-06-10T10:04:45;25.00;60.60
74520;DHT22;63002;48.134;-1.948;2023-06-10T10:07:11;25.00;61.30
74520;DHT22;63002;48.134;-1.948;2023-06-10T10:09:39;24.80;61.50
74520;DHT22;63002;48.134;-1.948;2023-06-10T10:12:11;24.80;61.60
74520;DHT22;63002;48.134;-1.948;2023-06-10T10:14:38;24.80;62.00
74520;DHT22;63002;48.134;-1.948;2023-06-10T10:17:08;24.80;62.10
74520;DHT22;63002;48.134;-1.948;2023-06-10T10:19:40;24.70;62.30
74520;DHT22;63002;48.134;-1.948;2023-06-10T10:22:08;24.70;62.20
74520;DHT22;63002;48.134;-1.948;2023-06-10T10:24:38;24.70;62.20
74520;DHT22;63002;48.134;-1.948;2023-06-10T10:27:30;24.70;62.30
74520;DHT22;63002;48.134;-1.948;2023-06-10T10:29:59;24.70;62.50
74520;DHT22;63002;48.134;-1.948;2023-06-10T10:32:40;24.70;62.60
74520;DHT22;63002;48.134;-1.948;2023-06-10T10:35:10;24.70;62.60
74520;DHT22;63002;48.134;-1.948;2023-06-10T10:37:39;24.70;62.20
74520;DHT22;63002;48.134;-1.948;2023-06-10T10:40:06;24.70;61.00
74520;DHT22;63002;48.134;-1.948;2023-06-10T10:42:34;24.70;61.40
74520;DHT22;63002;48.134;-1.948;2023-06-10T10:45:00;24.80;61.30
74520;DHT22;63002;48.134;-1.948;2023-06-10T10:47:27;24.90;61.70
74520;DHT22;63002;48.134;-1.948;2023-06-10T10:49:56;24.90;62.50
74520;DHT22;63002;48.134;-1.948;2023-06-10T10:52:27;24.80;62.70
74520;DHT22;63002;48.134;-1.948;2023-06-10T10:55:12;24.80;62.60
74520;DHT22;63002;48.134;-1.948;2023-06-10T10:57:38;24.90;62.40
74520;DHT22;63002;48.134;-1.948;2023-06-10T11:00:05;24.90;62.20
74520;DHT22;63002;48.134;-1.948;2023-06-10T11:04:57;25.00;62.00
74520;DHT22;63002;48.134;-1.948;2023-06-10T11:07:25;25.00;61.80
74520;DHT22;63002;48.134;-1.948;2023-06-10T11:10:10;25.00;61.80
74520;DHT22;63002;48.134;-1.948;2023-06-10T11:15:13;25.10;61.30
74520;DHT22;63002;48.134;-1.948;2023-06-10T11:18:11;25.20;61.20
74520;DHT22;63002;48.134;-1.948;2023-06-10T11:33:47;25.20;61.20
74520;DHT22;63002;48.134;-1.948;2023-06-10T11:36:14;25.20;61.10
74520;DHT22;63002;48.134;-1.948;2023-06-10T11:38:40;25.30;60.90
74520;DHT22;63002;48.134;-1.948;2023-06-10T11:41:06;25.30;60.70
74520;DHT22;63002;48.134;-1.948;2023-06-10T11:43:33;25.30;60.70
74520;DHT22;63002;48.134;-1.948;2023-06-10T11:45:59;25.40;60.50
74520;DHT22;63002;48.134;-1.948;2023-06-10T11:48:25;25.30;60.30
74520;DHT22;63002;48.134;-1.948;2023-06-10T11:50:54;25.30;61.10
74520;DHT22;63002;48.134;-1.948;2023-06-10T11:53:19;25.10;61.80
74520;DHT22;63002;48.134;-1.948;2023-06-10T11:55:47;25.20;62.00
74520;DHT22;63002;48.134;-1.948;2023-06-10T11:58:15;25.20;62.10
74520;DHT22;63002;48.134;-1.948;2023-06-10T12:00:55;25.20;61.80
74520;DHT22;63002;48.134;-1.948;2023-06-10T12:03:24;25.30;61.50
74520;DHT22;63002;48.134;-1.948;2023-06-10T12:06:05;25.30;61.30
74520;DHT22;63002;48.134;-1.948;2023-06-10T12:08:33;25.40;61.40
74520;DHT22;63002;48.134;-1.948;2023-06-10T12:11:06;25.30;62.00
74520;DHT22;63002;48.134;-1.948;2023-06-10T12:13:32;25.40;61.90
74520;DHT22;63002;48.134;-1.948;2023-06-10T12:16:10;25.40;61.70
74520;DHT22;63002;48.134;-1.948;2023-06-10T12:18:36;25.40;61.70
74520;DHT22;63002;48.134;-1.948;2023-06-10T12:21:17;25.40;61.40
74520;DHT22;63002;48.134;-1.948;2023-06-10T12:24:01;25.40;61.10
74520;DHT22;63002;48.134;-1.948;2023-06-10T12:26:41;25.50;60.90
74520;DHT22;63002;48.134;-1.948;2023-06-10T12:29:18;25.50;60.80
74520;DHT22;63002;48.134;-1.948;2023-06-10T12:32:06;25.50;60.70
74520;DHT22;63002;48.134;-1.948;2023-06-10T12:34:33;25.50;60.50
74520;DHT22;63002;48.134;-1.948;2023-06-10T12:37:01;25.50;60.40
74520;DHT22;63002;48.134;-1.948;2023-06-10T12:39:28;25.50;60.60
74520;DHT22;63002;48.134;-1.948;2023-06-10T12:41:55;25.50;61.00
74520;DHT22;63002;48.134;-1.948;2023-06-10T12:44:34;25.50;61.20
74520;DHT22;63002;48.134;-1.948;2023-06-10T12:47:00;25.60;61.20
74520;DHT22;63002;48.134;-1.948;2023-06-10T12:49:27;25.60;61.50
74520;DHT22;63002;48.134;-1.948;2023-06-10T12:51:53;25.50;61.60
74520;DHT22;63002;48.134;-1.948;2023-06-10T12:54:22;25.50;61.60
74520;DHT22;63002;48.134;-1.948;2023-06-10T12:56:48;25.50;61.80
74520;DHT22;63002;48.134;-1.948;2023-06-10T12:59:14;25.50;61.80
74520;DHT22;63002;48.134;-1.948;2023-06-10T13:01:40;25.50;61.80
74520;DHT22;63002;48.134;-1.948;2023-06-10T13:04:06;25.50;61.90
74520;DHT22;63002;48.134;-1.948;2023-06-10T13:06:33;25.50;62.00
74520;DHT22;63002;48.134;-1.948;2023-06-10T13:09:02;25.50;62.00
74520;DHT22;63002;48.134;-1.948;2023-06-10T13:11:28;25.40;62.00
74520;DHT22;63002;48.134;-1.948;2023-06-10T13:13:54;25.50;62.10
74520;DHT22;63002;48.134;-1.948;2023-06-10T13:16:19;25.40;62.50
74520;DHT22;63002;48.134;-1.948;2023-06-10T13:18:45;25.50;62.40
74520;DHT22;63002;48.134;-1.948;2023-06-10T13:21:11;25.50;61.90
74520;DHT22;63002;48.134;-1.948;2023-06-10T13:23:37;25.60;61.60
74520;DHT22;63002;48.134;-1.948;2023-06-10T13:26:03;25.60;61.20
74520;DHT22;63002;48.134;-1.948;2023-06-10T13:28:28;25.60;61.00
74520;DHT22;63002;48.134;-1.948;2023-06-10T13:30:54;25.60;60.90
74520;DHT22;63002;48.134;-1.948;2023-06-10T13:33:20;25.60;60.80
74520;DHT22;63002;48.134;-1.948;2023-06-10T13:35:46;25.60;60.70
74520;DHT22;63002;48.134;-1.948;2023-06-10T13:38:12;25.60;60.60
74520;DHT22;63002;48.134;-1.948;2023-06-10T13:40:38;25.60;60.60
74520;DHT22;63002;48.134;-1.948;2023-06-10T13:43:04;25.60;60.40
74520;DHT22;63002;48.134;-1.948;2023-06-10T13:45:30;25.60;60.40
74520;DHT22;63002;48.134;-1.948;2023-06-10T13:47:56;25.60;60.30
74520;DHT22;63002;48.134;-1.948;2023-06-10T13:50:23;25.60;60.30
74520;DHT22;63002;48.134;-1.948;2023-06-10T13:52:48;25.50;60.20
74520;DHT22;63002;48.134;-1.948;2023-06-10T13:55:15;25.60;60.20
74520;DHT22;63002;48.134;-1.948;2023-06-10T13:57:43;25.50;60.10
74520;DHT22;63002;48.134;-1.948;2023-06-10T14:00:09;25.60;60.10
74520;DHT22;63002;48.134;-1.948;2023-06-10T14:02:35;25.60;60.00
74520;DHT22;63002;48.134;-1.948;2023-06-10T14:05:01;25.50;60.00
74520;DHT22;63002;48.134;-1.948;2023-06-10T14:07:27;25.50;60.10
74520;DHT22;63002;48.134;-1.948;2023-06-10T14:09:55;25.50;60.70
74520;DHT22;63002;48.134;-1.948;2023-06-10T14:12:21;25.50;60.60
74520;DHT22;63002;48.134;-1.948;2023-06-10T14:14:47;25.40;60.70
74520;DHT22;63002;48.134;-1.948;2023-06-10T14:17:13;25.40;60.70
74520;DHT22;63002;48.134;-1.948;2023-06-10T14:19:38;25.40;60.70
74520;DHT22;63002;48.134;-1.948;2023-06-10T14:22:06;25.40;60.70
74520;DHT22;63002;48.134;-1.948;2023-06-10T14:24:33;25.40;60.70
74520;DHT22;63002;48.134;-1.948;2023-06-10T14:26:59;25.40;60.70
74520;DHT22;63002;48.134;-1.948;2023-06-10T14:29:24;25.40;60.60
74520;DHT22;63002;48.134;-1.948;2023-06-10T14:31:54;25.40;60.90
74520;DHT22;63002;48.134;-1.948;2023-06-10T14:34:20;25.40;61.20
74520;DHT22;63002;48.134;-1.948;2023-06-10T14:36:48;25.50;61.50
74520;DHT22;63002;48.134;-1.948;2023-06-10T14:39:14;25.50;62.20
74520;DHT22;63002;48.134;-1.948;2023-06-10T14:41:40;25.50;61.70
74520;DHT22;63002;48.134;-1.948;2023-06-10T14:44:06;25.60;61.90
74520;DHT22;63002;48.134;-1.948;2023-06-10T14:46:31;25.60;61.80
74520;DHT22;63002;48.134;-1.948;2023-06-10T14:48:57;25.60;61.90
74520;DHT22;63002;48.134;-1.948;2023-06-10T14:51:24;25.70;62.00
74520;DHT22;63002;48.134;-1.948;2023-06-10T14:53:50;25.70;62.00
74520;DHT22;63002;48.134;-1.948;2023-06-10T14:56:17;25.70;61.90
74520;DHT22;63002;48.134;-1.948;2023-06-10T14:58:42;25.80;61.90
74520;DHT22;63002;48.134;-1.948;2023-06-10T15:01:08;25.70;61.90
74520;DHT22;63002;48.134;-1.948;2023-06-10T15:03:34;25.70;61.70
74520;DHT22;63002;48.134;-1.948;2023-06-10T15:06:00;25.80;61.30
74520;DHT22;63002;48.134;-1.948;2023-06-10T15:08:28;25.80;61.60
74520;DHT22;63002;48.134;-1.948;2023-06-10T15:10:54;25.70;61.60
74520;DHT22;63002;48.134;-1.948;2023-06-10T15:13:20;25.70;61.70
74520;DHT22;63002;48.134;-1.948;2023-06-10T15:15:45;25.70;61.60
74520;DHT22;63002;48.134;-1.948;2023-06-10T15:18:11;25.70;61.50
74520;DHT22;63002;48.134;-1.948;2023-06-10T15:20:37;25.70;61.50
74520;DHT22;63002;48.134;-1.948;2023-06-10T15:23:02;25.70;61.40
74520;DHT22;63002;48.134;-1.948;2023-06-10T15:25:28;25.70;61.20
74520;DHT22;63002;48.134;-1.948;2023-06-10T15:27:54;25.70;61.20
74520;DHT22;63002;48.134;-1.948;2023-06-10T15:30:20;25.70;61.20
74520;DHT22;63002;48.134;-1.948;2023-06-10T15:32:45;25.70;61.10
74520;DHT22;63002;48.134;-1.948;2023-06-10T15:35:11;25.70;61.10
74520;DHT22;63002;48.134;-1.948;2023-06-10T15:37:37;25.70;61.10
74520;DHT22;63002;48.134;-1.948;2023-06-10T15:40:03;25.70;61.10
74520;DHT22;63002;48.134;-1.948;2023-06-10T15:42:29;25.70;61.10
74520;DHT22;63002;48.134;-1.948;2023-06-10T15:44:55;25.70;61.10
74520;DHT22;63002;48.134;-1.948;2023-06-10T15:47:20;25.60;61.40
74520;DHT22;63002;48.134;-1.948;2023-06-10T15:49:46;25.60;61.30
74520;DHT22;63002;48.134;-1.948;2023-06-10T15:52:12;25.60;60.90
74520;DHT22;63002;48.134;-1.948;2023-06-10T15:54:38;25.70;60.80
74520;DHT22;63002;48.134;-1.948;2023-06-10T15:57:04;25.70;60.70
74520;DHT22;63002;48.134;-1.948;2023-06-10T15:59:31;25.70;60.70
74520;DHT22;63002;48.134;-1.948;2023-06-10T16:01:56;25.70;60.70
74520;DHT22;63002;48.134;-1.948;2023-06-10T16:04:23;25.70;60.70
74520;DHT22;63002;48.134;-1.948;2023-06-10T16:06:49;25.70;61.00
74520;DHT22;63002;48.134;-1.948;2023-06-10T16:09:15;25.70;61.10
74520;DHT22;63002;48.134;-1.948;2023-06-10T16:11:42;25.70;61.10
74520;DHT22;63002;48.134;-1.948;2023-06-10T16:14:07;25.70;61.30
74520;DHT22;63002;48.134;-1.948;2023-06-10T16:16:33;25.70;61.10
74520;DHT22;63002;48.134;-1.948;2023-06-10T16:18:59;25.70;60.70
74520;DHT22;63002;48.134;-1.948;2023-06-10T16:21:25;25.70;60.60
74520;DHT22;63002;48.134;-1.948;2023-06-10T16:23:51;25.70;60.60
74520;DHT22;63002;48.134;-1.948;2023-06-10T16:26:17;25.60;60.70
74520;DHT22;63002;48.134;-1.948;2023-06-10T16:28:43;25.60;60.70
74520;DHT22;63002;48.134;-1.948;2023-06-10T16:31:08;25.60;60.90
74520;DHT22;63002;48.134;-1.948;2023-06-10T16:33:34;25.60;61.00
74520;DHT22;63002;48.134;-1.948;2023-06-10T16:36:00;25.70;61.00
74520;DHT22;63002;48.134;-1.948;2023-06-10T16:38:25;25.70;61.10
74520;DHT22;63002;48.134;-1.948;2023-06-10T16:40:51;25.70;60.80
74520;DHT22;63002;48.134;-1.948;2023-06-10T16:43:17;25.60;61.00
74520;DHT22;63002;48.134;-1.948;2023-06-10T16:45:43;25.70;60.90
74520;DHT22;63002;48.134;-1.948;2023-06-10T16:48:08;25.60;60.80
74520;DHT22;63002;48.134;-1.948;2023-06-10T16:50:34;25.60;61.00
74520;DHT22;63002;48.134;-1.948;2023-06-10T16:53:00;25.60;61.00
74520;DHT22;63002;48.134;-1.948;2023-06-10T16:55:25;25.60;61.20
74520;DHT22;63002;48.134;-1.948;2023-06-10T16:57:51;25.70;61.00
74520;DHT22;63002;48.134;-1.948;2023-06-10T17:00:17;25.60;61.10
74520;DHT22;63002;48.134;-1.948;2023-06-10T17:02:43;25.70;60.80
74520;DHT22;63002;48.134;-1.948;2023-06-10T17:05:08;25.70;60.90
74520;DHT22;63002;48.134;-1.948;2023-06-10T17:07:34;25.70;61.30
74520;DHT22;63002;48.134;-1.948;2023-06-10T17:10:00;25.60;61.50
74520;DHT22;63002;48.134;-1.948;2023-06-10T17:12:26;25.70;61.20
74520;DHT22;63002;48.134;-1.948;2023-06-10T17:14:51;25.80;61.10
74520;DHT22;63002;48.134;-1.948;2023-06-10T17:17:17;25.70;60.90
74520;DHT22;63002;48.134;-1.948;2023-06-10T17:19:44;25.70;60.70
74520;DHT22;63002;48.134;-1.948;2023-06-10T17:22:09;25.70;60.90
74520;DHT22;63002;48.134;-1.948;2023-06-10T17:24:35;25.70;60.90
74520;DHT22;63002;48.134;-1.948;2023-06-10T17:27:03;25.70;60.90
74520;DHT22;63002;48.134;-1.948;2023-06-10T17:29:29;25.70;61.30
74520;DHT22;63002;48.134;-1.948;2023-06-10T17:31:54;25.70;61.10
74520;DHT22;63002;48.134;-1.948;2023-06-10T17:34:20;25.70;61.00
74520;DHT22;63002;48.134;-1.948;2023-06-10T17:36:46;25.70;60.90
74520;DHT22;63002;48.134;-1.948;2023-06-10T17:39:12;25.70;61.10
74520;DHT22;63002;48.134;-1.948;2023-06-10T17:41:38;25.70;61.20
74520;DHT22;63002;48.134;-1.948;2023-06-10T17:44:04;25.60;61.10
74520;DHT22;63002;48.134;-1.948;2023-06-10T17:46:30;25.70;61.00
74520;DHT22;63002;48.134;-1.948;2023-06-10T17:48:56;25.70;60.90
74520;DHT22;63002;48.134;-1.948;2023-06-10T17:51:21;25.70;60.80
74520;DHT22;63002;48.134;-1.948;2023-06-10T17:53:47;25.70;60.80
74520;DHT22;63002;48.134;-1.948;2023-06-10T17:56:13;25.70;60.70
74520;DHT22;63002;48.134;-1.948;2023-06-10T17:58:39;25.60;61.00
74520;DHT22;63002;48.134;-1.948;2023-06-10T18:01:06;25.60;61.00
74520;DHT22;63002;48.134;-1.948;2023-06-10T18:03:32;25.60;60.90
74520;DHT22;63002;48.134;-1.948;2023-06-10T18:06:01;25.60;61.10
74520;DHT22;63002;48.134;-1.948;2023-06-10T18:08:27;25.60;61.00
74520;DHT22;63002;48.134;-1.948;2023-06-10T18:10:54;25.70;60.80
74520;DHT22;63002;48.134;-1.948;2023-06-10T18:13:20;25.70;60.70
74520;DHT22;63002;48.134;-1.948;2023-06-10T18:15:45;25.60;61.00
74520;DHT22;63002;48.134;-1.948;2023-06-10T18:18:11;25.60;60.80
74520;DHT22;63002;48.134;-1.948;2023-06-10T18:20:37;25.70;60.80
74520;DHT22;63002;48.134;-1.948;2023-06-10T18:23:02;25.60;60.80
74520;DHT22;63002;48.134;-1.948;2023-06-10T18:25:28;25.40;62.30
74520;DHT22;63002;48.134;-1.948;2023-06-10T18:27:54;25.30;62.50
74520;DHT22;63002;48.134;-1.948;2023-06-10T18:30:20;25.40;62.00
74520;DHT22;63002;48.134;-1.948;2023-06-10T18:32:46;25.50;61.70
74520;DHT22;63002;48.134;-1.948;2023-06-10T18:35:12;25.50;61.60
74520;DHT22;63002;48.134;-1.948;2023-06-10T18:37:38;25.50;61.40
74520;DHT22;63002;48.134;-1.948;2023-06-10T18:40:04;25.60;61.20
74520;DHT22;63002;48.134;-1.948;2023-06-10T18:42:31;25.60;61.00
74520;DHT22;63002;48.134;-1.948;2023-06-10T18:44:56;25.60;61.00
74520;DHT22;63002;48.134;-1.948;2023-06-10T18:47:22;25.60;60.90
74520;DHT22;63002;48.134;-1.948;2023-06-10T18:49:48;25.60;60.80
74520;DHT22;63002;48.134;-1.948;2023-06-10T18:52:13;25.50;60.80
74520;DHT22;63002;48.134;-1.948;2023-06-10T18:54:39;25.50;60.80
74520;DHT22;63002;48.134;-1.948;2023-06-10T18:57:05;25.50;60.90
74520;DHT22;63002;48.134;-1.948;2023-06-10T18:59:31;25.40;60.90
74520;DHT22;63002;48.134;-1.948;2023-06-10T19:01:57;25.40;60.90
74520;DHT22;63002;48.134;-1.948;2023-06-10T19:04:23;25.40;60.90
74520;DHT22;63002;48.134;-1.948;2023-06-10T19:06:48;25.40;60.90
74520;DHT22;63002;48.134;-1.948;2023-06-10T19:09:14;25.40;60.90
74520;DHT22;63002;48.134;-1.948;2023-06-10T19:11:40;25.40;60.80
74520;DHT22;63002;48.134;-1.948;2023-06-10T19:14:06;25.40;60.80
74520;DHT22;63002;48.134;-1.948;2023-06-10T19:16:32;25.40;60.80
74520;DHT22;63002;48.134;-1.948;2023-06-10T19:18:58;25.40;60.80
74520;DHT22;63002;48.134;-1.948;2023-06-10T19:21:24;25.40;60.80
74520;DHT22;63002;48.134;-1.948;2023-06-10T19:23:50;25.40;60.90
74520;DHT22;63002;48.134;-1.948;2023-06-10T19:26:16;25.40;60.80
74520;DHT22;63002;48.134;-1.948;2023-06-10T19:28:41;25.40;60.80
74520;DHT22;63002;48.134;-1.948;2023-06-10T19:31:07;25.40;61.00
74520;DHT22;63002;48.134;-1.948;2023-06-10T19:33:33;25.40;60.90
74520;DHT22;63002;48.134;-1.948;2023-06-10T19:35:59;25.40;60.80
74520;DHT22;63002;48.134;-1.948;2023-06-10T19:38:24;25.40;60.90
74520;DHT22;63002;48.134;-1.948;2023-06-10T19:40:50;25.30;60.90
74520;DHT22;63002;48.134;-1.948;2023-06-10T19:43:16;25.30;60.90
74520;DHT22;63002;48.134;-1.948;2023-06-10T19:45:41;25.30;60.90
74520;DHT22;63002;48.134;-1.948;2023-06-10T19:48:07;25.30;60.90
74520;DHT22;63002;48.134;-1.948;2023-06-10T19:50:33;25.30;60.90
74520;DHT22;63002;48.134;-1.948;2023-06-10T19:53:00;25.30;60.90
74520;DHT22;63002;48.134;-1.948;2023-06-10T19:55:26;25.30;60.90
74520;DHT22;63002;48.134;-1.948;2023-06-10T19:57:51;25.30;60.90
74520;DHT22;63002;48.134;-1.948;2023-06-10T20:00:20;25.30;61.00
74520;DHT22;63002;48.134;-1.948;2023-06-10T20:02:47;25.30;61.30
74520;DHT22;63002;48.134;-1.948;2023-06-10T20:05:12;25.30;61.80
74520;DHT22;63002;48.134;-1.948;2023-06-10T20:07:38;25.30;61.40
74520;DHT22;63002;48.134;-1.948;2023-06-10T20:10:04;25.30;61.20
74520;DHT22;63002;48.134;-1.948;2023-06-10T20:12:30;25.30;61.20
74520;DHT22;63002;48.134;-1.948;2023-06-10T20:14:56;25.30;61.20
74520;DHT22;63002;48.134;-1.948;2023-06-10T20:17:23;25.30;61.20
74520;DHT22;63002;48.134;-1.948;2023-06-10T20:19:48;25.30;61.10
74520;DHT22;63002;48.134;-1.948;2023-06-10T20:22:18;25.30;61.00
74520;DHT22;63002;48.134;-1.948;2023-06-10T20:24:45;25.30;61.00
74520;DHT22;63002;48.134;-1.948;2023-06-10T20:27:11;25.30;61.00
74520;DHT22;63002;48.134;-1.948;2023-06-10T20:29:37;25.30;60.90
74520;DHT22;63002;48.134;-1.948;2023-06-10T20:32:03;25.30;61.00